Temp: 19.5°C   Baro: 1015.0mb
  Wind: 6.0mph   Dir: SSW (212°)
  Rain: 0.0mm (0.0mm/hr)
  Solar: 838W/m2  Hum: 69%
 
Bath Spa Weather Station Historical Data
Daily Summary for August 02, 2020 Units:  English    Metric   Both
Daily Weekly Monthly Yearly Custom
  High: Low: Average:
Temperature: 69.9 °F 54.9 °F 60.9 °F
Dew Point: 57.4 °F 49.4 °F 53.1 °F
Humidity: 89% 59% 76%
Wind Speed: 12.2mph 0mph 4.1mph
Wind Gust: 18mph - -
Wind- - West
Pressure: 30.06 in 30.00 in -
Precipitation: 0.00 in    
Historical Graphs
 
 
Tabular Data for August 02, 2020
Time Temperature Dew Point Pressure Wind Wind Speed Wind Gust Humidity Rainfall Rate (Hourly) solar
00:04 56.1 °F 49.5 °F 30.04 in Calm   3 mph 78.6% 0.00 in 0 W/m2
00:09 55.9 °F 49.5 °F 30.04 in Calm     79% 0.00 in 0 W/m2
00:14 55.9 °F 49.4 °F 30.04 in Calm     79% 0.00 in 0 W/m2
00:19 55.8 °F 49.5 °F 30.04 in Calm     79.5% 0.00 in 0 W/m2
00:24 55.7 °F 49.5 °F 30.04 in Calm     80% 0.00 in 0 W/m2
00:29 55.6 °F 49.5 °F 30.04 in Calm     80% 0.00 in 0 W/m2
00:34 55.6 °F 49.5 °F 30.04 in Calm     80% 0.00 in 0 W/m2
00:39 55.6 °F 49.7 °F 30.04 in Calm     80.6% 0.00 in 0 W/m2
00:44 55.5 °F 49.7 °F 30.04 in Calm     81% 0.00 in 0 W/m2
00:49 55.4 °F 49.6 °F 30.04 in Calm     81% 0.00 in 0 W/m2
00:54 55.3 °F 49.7 °F 30.04 in Calm     81.5% 0.00 in 0 W/m2
00:59 55.2 °F 49.8 °F 30.04 in Calm     82% 0.00 in 0 W/m2
01:04 55.2 °F 49.8 °F 30.04 in Calm     82% 0.00 in 0 W/m2
01:09 55.2 °F 49.8 °F 30.04 in WNW 1.6 mph 3 mph 82% 0.00 in 0 W/m2
01:14 55.2 °F 49.8 °F 30.04 in WNW 2 mph 3 mph 82% 0.00 in 0 W/m2
01:19 55.2 °F 50.2 °F 30.04 in WNW 2.2 mph 4 mph 83% 0.00 in 0 W/m2
01:24 55.2 °F 50.2 °F 30.04 in WNW 3.1 mph 5 mph 83% 0.00 in 0 W/m2
01:29 55.3 °F 50.3 °F 30.04 in WNW 2.6 mph 5 mph 83% 0.00 in 0 W/m2
01:34 55.2 °F 50.4 °F 30.04 in WNW 1.4 mph 4 mph 83.6% 0.00 in 0 W/m2
01:39 55.2 °F 50.5 °F 30.03 in WNW 2.1 mph 5 mph 84% 0.00 in 0 W/m2
01:44 55.2 °F 50.5 °F 30.03 in WNW 1.6 mph 6 mph 84% 0.00 in 0 W/m2
01:49 55.1 °F 50.5 °F 30.03 in WNW 1.3 mph 3 mph 84.4% 0.00 in 0 W/m2
01:54 55.1 °F 50.6 °F 30.03 in WNW 2.2 mph 4 mph 85% 0.00 in 0 W/m2
01:59 55.1 °F 50.6 °F 30.03 in WNW 2.4 mph 4 mph 85% 0.00 in 0 W/m2
02:04 55 °F 50.5 °F 30.03 in WNW 2.3 mph 5 mph 85% 0.00 in 0 W/m2
02:09 55 °F 50.5 °F 30.03 in WNW 2.9 mph 5 mph 85% 0.00 in 0 W/m2
02:14 55.2 °F 50.7 °F 30.03 in WNW 3.3 mph 5 mph 85% 0.00 in 0 W/m2
02:19 55.2 °F 50.9 °F 30.03 in WNW 2.7 mph 5 mph 85.4% 0.00 in 0 W/m2
02:24 55.1 °F 51 °F 30.03 in WNW 3.3 mph 5 mph 86% 0.00 in 0 W/m2
02:29 55 °F 50.9 °F 30.03 in WNW 2.5 mph 4 mph 86% 0.00 in 0 W/m2
02:34 54.9 °F 50.7 °F 30.03 in WNW 2.2 mph 5 mph 86% 0.00 in 0 W/m2
02:39 54.9 °F 50.7 °F 30.03 in WNW 2 mph 4 mph 86% 0.00 in 0 W/m2
02:44 54.9 °F 50.8 °F 30.03 in WNW 2.8 mph 5 mph 86% 0.00 in 0 W/m2
02:49 55 °F 50.9 °F 30.03 in WNW 2.4 mph 4 mph 86% 0.00 in 0 W/m2
02:54 55 °F 50.9 °F 30.03 in WNW 2.1 mph 4 mph 86% 0.00 in 0 W/m2
02:59 55.2 °F 51.1 °F 30.03 in WNW 2 mph 4 mph 86% 0.00 in 0 W/m2
03:04 55.2 °F 51.1 °F 30.03 in WNW 1 mph 3 mph 86% 0.00 in 0 W/m2
03:09 55.2 °F 51.1 °F 30.03 in WNW 2.1 mph 4 mph 86% 0.00 in 0 W/m2
03:14 55.2 °F 51.1 °F 30.03 in WNW 2 mph 4 mph 86% 0.00 in 0 W/m2
03:19 55.2 °F 51.1 °F 30.03 in WNW 1.2 mph 3 mph 86% 0.00 in 0 W/m2
03:29 55.4 °F 51.3 °F 30.03 in WNW 0.8 mph 3 mph 86% 0.00 in 0 W/m2
03:34 55.3 °F 51.2 °F 30.03 in WNW 0.3 mph 3 mph 86% 0.00 in 0 W/m2
03:39 55.4 °F 51.3 °F 30.03 in Calm     86% 0.00 in 0 W/m2
03:44 55.4 °F 51.3 °F 30.03 in Calm     86% 0.00 in 0 W/m2
03:49 55.2 °F 51.1 °F 30.03 in Calm     86% 0.00 in 0 W/m2
03:54 55.1 °F 51 °F 30.03 in Calm     86% 0.00 in 0 W/m2
03:59 55 °F 51.1 °F 30.03 in Calm     86.6% 0.00 in 0 W/m2
04:04 54.9 °F 51.1 °F 30.03 in Calm   2 mph 87% 0.00 in 0 W/m2
04:09 54.9 °F 51.1 °F 30.03 in WNW 1 mph 3 mph 87% 0.00 in 0 W/m2
04:14 54.9 °F 51.2 °F 30.03 in WNW 0.5 mph 2 mph 87% 0.00 in 0 W/m2
04:19 54.9 °F 51.2 °F 30.03 in WNW 0.2 mph 2 mph 87% 0.00 in 0 W/m2
04:24 55 °F 51.3 °F 30.03 in Calm   2 mph 87% 0.00 in 0 W/m2
04:29 55 °F 51.3 °F 30.03 in WNW 0.6 mph 3 mph 87% 0.00 in 0 W/m2
04:34 55.1 °F 51.3 °F 30.03 in WNW 0.7 mph 3 mph 87% 0.00 in 0 W/m2
04:39 55.2 °F 51.4 °F 30.03 in Calm   3 mph 87% 0.00 in 0 W/m2
04:44 55.2 °F 51.5 °F 30.03 in Calm     87.2% 0.00 in 0 W/m2
04:49 55.3 °F 51.5 °F 30.03 in WNW 0.4 mph 3 mph 87% 0.00 in 0 W/m2
04:54 55.4 °F 51.8 °F 30.03 in Calm     87.4% 0.00 in 0 W/m2
04:59 55.4 °F 51.8 °F 30.03 in Calm     87.6% 0.00 in 0 W/m2
05:04 55.4 °F 52 °F 30.02 in Calm     88% 0.00 in 0 W/m2
05:09 55.6 °F 52 °F 30.02 in Calm     87.6% 0.00 in 0 W/m2
05:14 55.4 °F 51.9 °F 30.03 in Calm     87.6% 0.00 in 0 W/m2
05:19 55.4 °F 51.9 °F 30.03 in Calm     87.8% 0.00 in 0 W/m2
05:24 55.4 °F 52 °F 30.03 in Calm     88% 0.00 in 0 W/m2
05:29 55.5 °F 52.1 °F 30.03 in Calm     88% 0.00 in 0 W/m2
05:34 55.6 °F 52.2 °F 30.03 in WNW 1.2 mph 3 mph 88% 0.00 in 0 W/m2
05:39 55.6 °F 52.2 °F 30.03 in Calm   2 mph 88% 0.00 in 0 W/m2
05:44 55.6 °F 52.2 °F 30.03 in Calm   1 mph 88% 0.00 in 7 W/m2
05:49 55.4 °F 52 °F 30.03 in WNW 0.2 mph 2 mph 88% 0.00 in 9 W/m2
05:54 55.3 °F 51.9 °F 30.03 in WNW 1 mph 4 mph 88% 0.00 in 12 W/m2
05:59 55.2 °F 51.8 °F 30.03 in Calm   2 mph 88% 0.00 in 18 W/m2
06:04 55.2 °F 51.8 °F 30.03 in WNW 0.8 mph 3 mph 88% 0.00 in 19 W/m2
06:09 55.2 °F 51.8 °F 30.03 in WNW 0.8 mph 4 mph 88% 0.00 in 25 W/m2
06:14 55.2 °F 51.8 °F 30.03 in WNW 0.8 mph 4 mph 88% 0.00 in 32 W/m2
06:19 55.2 °F 51.8 °F 30.03 in WNW 1.5 mph 5 mph 88% 0.00 in 35 W/m2
06:24 55.2 °F 51.8 °F 30.03 in WNW 2.2 mph 4 mph 88% 0.00 in 30 W/m2
06:29 55.2 °F 51.9 °F 30.03 in WNW 2 mph 4 mph 88.6% 0.00 in 30 W/m2
06:34 55.2 °F 52 °F 30.03 in WNW 0.5 mph 3 mph 89% 0.00 in 28 W/m2
06:39 55.2 °F 52 °F 30.03 in WNW 1.3 mph 4 mph 89% 0.00 in 26 W/m2
06:44 55.2 °F 52 °F 30.03 in WNW 2 mph 4 mph 89% 0.00 in 28 W/m2
06:49 55.2 °F 52 °F 30.03 in West 1.7 mph 6 mph 89% 0.00 in 30 W/m2
06:54 55.2 °F 52 °F 30.03 in West 3.6 mph 6 mph 89% 0.00 in 35 W/m2
06:59 55.3 °F 52.1 °F 30.03 in WNW 1.7 mph 5 mph 89% 0.00 in 44 W/m2
07:04 55.6 °F 52.3 °F 30.03 in WNW 1.3 mph 4 mph 89% 0.00 in 60 W/m2
07:09 55.7 °F 52.4 °F 30.03 in West 1.8 mph 5 mph 89% 0.00 in 65 W/m2
07:14 55.9 °F 52.7 °F 30.03 in WSW 0.8 mph 3 mph 89% 0.00 in 84 W/m2
07:19 56 °F 52.8 °F 30.03 in WNW 0.4 mph 5 mph 89% 0.00 in 151 W/m2
07:24 56.4 °F 53.2 °F 30.04 in West 2.3 mph 5 mph 89% 0.00 in 148 W/m2
07:29 56.7 °F 53.2 °F 30.04 in West 0.8 mph 3 mph 88.2% 0.00 in 123 W/m2
07:34 56.8 °F 53.2 °F 30.04 in West 2 mph 6 mph 88% 0.00 in 137 W/m2
07:39 57.1 °F 53.5 °F 30.04 in WSW 1.5 mph 6 mph 88% 0.00 in 144 W/m2
07:44 57.3 °F 53.7 °F 30.04 in West 1.3 mph 4 mph 88% 0.00 in 209 W/m2
07:49 57.5 °F 53.8 °F 30.04 in Calm   2 mph 87.4% 0.00 in 232 W/m2
07:54 57.7 °F 54 °F 30.04 in Calm     87% 0.00 in 176 W/m2
07:59 58.2 °F 54.4 °F 30.04 in West 3.3 mph 7 mph 87% 0.00 in 272 W/m2
08:04 58.2 °F 54.3 °F 30.04 in WNW 2.3 mph 6 mph 86.8% 0.00 in 352 W/m2
08:09 58.6 °F 54.4 °F 30.04 in WNW 2.7 mph 7 mph 86% 0.00 in 325 W/m2
08:14 58.6 °F 54.5 °F 30.04 in West 3.5 mph 5 mph 86% 0.00 in 232 W/m2
08:19 58.8 °F 54.5 °F 30.04 in West 2.9 mph 5 mph 85.6% 0.00 in 186 W/m2
08:24 59 °F 54.5 °F 30.04 in West 3 mph 6 mph 85% 0.00 in 304 W/m2
08:29 59.5 °F 54.8 °F 30.04 in West 3.6 mph 9 mph 84.2% 0.00 in 325 W/m2
08:34 60.1 °F 54.8 °F 30.04 in West 4.3 mph 8 mph 83% 0.00 in 353 W/m2
08:39 60.3 °F 54.7 °F 30.04 in West 4 mph 8 mph 81.8% 0.00 in 373 W/m2
08:44 60.5 °F 54.5 °F 30.04 in West 7.2 mph 11 mph 80.4% 0.00 in 403 W/m2
08:49 60.8 °F 54.7 °F 30.04 in WNW 4.6 mph 10 mph 80% 0.00 in 258 W/m2
08:54 61 °F 54.6 °F 30.04 in West 3 mph 7 mph 79.5% 0.00 in 162 W/m2
08:59 61.2 °F 54.7 °F 30.04 in West 6.8 mph 10 mph 79% 0.00 in 265 W/m2
09:04 61.2 °F 54.7 °F 30.04 in WSW 5.4 mph 12 mph 79% 0.00 in 227 W/m2
09:09 61 °F 54.6 °F 30.04 in West 5.3 mph 13 mph 79.6% 0.00 in 234 W/m2
09:14 61 °F 55 °F 30.04 in SW 5.7 mph 10 mph 81% 0.00 in 299 W/m2
09:19 60.6 °F 54.7 °F 30.05 in SW 6.3 mph 11 mph 81% 0.00 in 239 W/m2
09:24 60.4 °F 54.5 °F 30.05 in WSW 5.7 mph 10 mph 81% 0.00 in 287 W/m2
09:29 60.3 °F 54.3 °F 30.05 in WSW 5.2 mph 10 mph 81% 0.00 in 311 W/m2
09:34 60.1 °F 54.3 °F 30.05 in WSW 3.7 mph 10 mph 81.2% 0.00 in 234 W/m2
09:39 60.3 °F 54.6 °F 30.05 in SW 5.7 mph 10 mph 81.5% 0.00 in 397 W/m2
09:44 60.4 °F 54.5 °F 30.05 in WSW 6 mph 10 mph 81% 0.00 in 422 W/m2
09:49 60.8 °F 54.9 °F 30.05 in West 5.5 mph 11 mph 81% 0.00 in 327 W/m2
09:54 61.2 °F 54.9 °F 30.05 in WNW 8 mph 11 mph 79.4% 0.00 in 566 W/m2
09:59 61.7 °F 55 °F 30.05 in West 8.2 mph 15 mph 78.7% 0.00 in 872 W/m2
10:04 61.8 °F 54.6 °F 30.05 in West 12.2 mph 17 mph 77.2% 0.00 in 446 W/m2
10:09 61.2 °F 54.5 °F 30.05 in WNW 8.4 mph 15 mph 78.4% 0.00 in 346 W/m2
10:14 60.3 °F 54.5 °F 30.06 in WNW 4.7 mph 11 mph 81% 0.00 in 271 W/m2
10:19 60.1 °F 55 °F 30.06 in West 2.9 mph 10 mph 83.4% 0.00 in 260 W/m2
10:24 59.7 °F 55.1 °F 30.06 in West 3.7 mph 8 mph 84.6% 0.00 in 287 W/m2
10:29 59.4 °F 55 °F 30.05 in West 4.8 mph 8 mph 85.4% 0.00 in 297 W/m2
10:34 59.5 °F 55.3 °F 30.05 in WSW 3.3 mph 7 mph 86% 0.00 in 352 W/m2
10:39 59.9 °F 55.8 °F 30.05 in West 4 mph 8 mph 86.2% 0.00 in 346 W/m2
10:44 60 °F 55.7 °F 30.05 in SW 4.2 mph 8 mph 85.8% 0.00 in 346 W/m2
10:49 60.2 °F 55.7 °F 30.05 in West 3.5 mph 6 mph 85% 0.00 in 292 W/m2
10:54 60.8 °F 56 °F 30.05 in WSW 3 mph 6 mph 84.2% 0.00 in 392 W/m2
10:59 61.4 °F 56.1 °F 30.05 in WSW 2.7 mph 8 mph 82.6% 0.00 in 698 W/m2
11:04 61.8 °F 55.7 °F 30.05 in WSW 5.1 mph 10 mph 80.6% 0.00 in 731 W/m2
11:09 62.2 °F 55.9 °F 30.05 in West 3.4 mph 8 mph 80.3% 0.00 in 766 W/m2
11:14 62.6 °F 55.7 °F 30.04 in WNW 6.4 mph 11 mph 78.4% 0.00 in 789 W/m2
11:19 63.1 °F 55.8 °F 30.04 in West 5.4 mph 11 mph 77% 0.00 in 796 W/m2
11:24 63.3 °F 55.8 °F 30.04 in WNW 6.8 mph 12 mph 76.6% 0.00 in 838 W/m2
11:29 64 °F 56 °F 30.04 in West 5.6 mph 12 mph 75.2% 0.00 in 893 W/m2
11:34 64.7 °F 55.9 °F 30.04 in WNW 5.2 mph 11 mph 73% 0.00 in 824 W/m2
11:39 65.2 °F 55.2 °F 30.04 in West 8.6 mph 14 mph 70% 0.00 in 814 W/m2
11:44 64.9 °F 55.2 °F 30.04 in West 6.6 mph 14 mph 70.6% 0.00 in 814 W/m2
11:49 65.6 °F 55.4 °F 30.04 in WSW 5.3 mph 11 mph 69.4% 0.00 in 856 W/m2
11:54 65.9 °F 55.3 °F 30.04 in NW 5.7 mph 12 mph 68.3% 0.00 in 844 W/m2
11:59 66.1 °F 55.2 °F 30.04 in West 5.4 mph 15 mph 68% 0.00 in 902 W/m2
12:04 66.5 °F 55 °F 30.03 in WSW 9.6 mph 17 mph 66.4% 0.00 in 912 W/m2
12:09 66.4 °F 56.1 °F 30.03 in West 7.2 mph 16 mph 69.6% 0.00 in 853 W/m2
12:14 66.7 °F 56.6 °F 30.03 in West 7.6 mph 13 mph 70% 0.00 in 809 W/m2
12:19 66.7 °F 56.3 °F 30.03 in WSW 6.2 mph 13 mph 69% 0.00 in 838 W/m2
12:24 66.8 °F 56.3 °F 30.03 in SW 7 mph 12 mph 69% 0.00 in 900 W/m2
12:29 67.8 °F 57.4 °F 30.03 in WNW 6 mph 11 mph 69.4% 0.00 in 954 W/m2
12:34 67.8 °F 56.9 °F 30.02 in WNW 5.5 mph 12 mph 68.2% 0.00 in 954 W/m2
12:39 67.8 °F 56.4 °F 30.03 in WSW 10.2 mph 13 mph 66.6% 0.00 in 928 W/m2
12:44 67.7 °F 56.2 °F 30.03 in West 7.2 mph 17 mph 66.6% 0.00 in 983 W/m2
12:49 67.6 °F 56 °F 30.03 in WSW 9.8 mph 17 mph 66.2% 0.00 in 977 W/m2
12:54 68.6 °F 56.7 °F 30.02 in WSW 7.2 mph 16 mph 65.8% 0.00 in 933 W/m2
12:58 68.3 °F 56 °F 30.03 in West 4.7 mph 17 mph 65% 0.00 in 911 W/m2
13:04 68.2 °F 56 °F 30.03 in West 8 mph 12 mph 65.4% 0.00 in 967 W/m2
13:09 68.5 °F 56.3 °F 30.03 in West 9.1 mph 14 mph 65% 0.00 in 967 W/m2
13:14 68.5 °F 55.9 °F 30.03 in WSW 12 mph 18 mph 64.2% 0.00 in 1021 W/m2
13:19 68.2 °F 55.7 °F 30.03 in West 11.5 mph 16 mph 64.2% 0.00 in 1025 W/m2
13:24 68.2 °F 55.7 °F 30.03 in West 5.2 mph 15 mph 64.4% 0.00 in 895 W/m2
13:29 68.8 °F 56.2 °F 30.03 in WNW 6 mph 13 mph 64.2% 0.00 in 969 W/m2
13:34 69.2 °F 55 °F 30.03 in WSW 7.8 mph 13 mph 60.4% 0.00 in 953 W/m2
13:39 68.9 °F 54.4 °F 30.03 in WSW 8.4 mph 18 mph 60% 0.00 in 953 W/m2
13:44 68.9 °F 54.6 °F 30.03 in West 8.5 mph 17 mph 60.3% 0.00 in 615 W/m2
13:49 68.5 °F 54.9 °F 30.02 in West 10 mph 16 mph 61.8% 0.00 in 1034 W/m2
13:54 68.7 °F 54.8 °F 30.02 in WSW 8.6 mph 16 mph 61% 0.00 in 997 W/m2
13:59 68.2 °F 54.2 °F 30.02 in WSW 10.5 mph 16 mph 61% 0.00 in 942 W/m2
14:04 67.6 °F 54.3 °F 30.02 in WSW 5.6 mph 12 mph 62.4% 0.00 in 526 W/m2
14:09 67.6 °F 54.4 °F 30.02 in WSW 6.4 mph 12 mph 62.4% 0.00 in 613 W/m2
14:14 68.3 °F 54.8 °F 30.02 in WSW 7.2 mph 15 mph 62% 0.00 in 958 W/m2
14:19 69 °F 55 °F 30.02 in WSW 9.8 mph 18 mph 61% 0.00 in 904 W/m2
14:24 68.8 °F 54.1 °F 30.02 in WSW 8.4 mph 15 mph 59.6% 0.00 in 904 W/m2
14:29 69.1 °F 54.6 °F 30.02 in West 5.8 mph 13 mph 60% 0.00 in 784 W/m2
14:34 68.8 °F 54.8 °F 30.02 in West 8.7 mph 17 mph 61% 0.00 in 828 W/m2
14:39 68.9 °F 55 °F 30.02 in West 8.2 mph 16 mph 61.2% 0.00 in 879 W/m2
14:44 69.1 °F 54.8 °F 30.02 in WSW 8.6 mph 15 mph 60.2% 0.00 in 893 W/m2
14:49 69.7 °F 55.1 °F 30.02 in WSW 9.1 mph 12 mph 59.8% 0.00 in 900 W/m2
14:54 69.5 °F 54.7 °F 30.02 in WNW 9.1 mph 15 mph 59.4% 0.00 in 933 W/m2
14:59 69.2 °F 54.5 °F 30.02 in NW 5.3 mph 15 mph 59.6% 0.00 in 933 W/m2
15:04 69.5 °F 55 °F 30.02 in West 9.2 mph 14 mph 60.2% 0.00 in 942 W/m2
15:09 69.3 °F 54.9 °F 30.01 in West 6.8 mph 14 mph 60% 0.00 in 947 W/m2
15:13 68.6 °F 54.2 °F 30.01 in West 7 mph 15 mph 60% 0.00 in 942 W/m2
15:19 68.1 °F 53.6 °F 30.01 in West 6.9 mph 14 mph 60% 0.00 in 838 W/m2
15:24 68.1 °F 53.6 °F 30.01 in WNW 8.2 mph 16 mph 60% 0.00 in 828 W/m2
15:29 69 °F 54.7 °F 30.01 in WSW 6.3 mph 14 mph 60.2% 0.00 in 812 W/m2
15:34 69.3 °F 54.3 °F 30.01 in West 7.8 mph 16 mph 59% 0.00 in 807 W/m2
15:39 69.1 °F 54.7 °F 30.01 in West 8 mph 13 mph 60% 0.00 in 856 W/m2
15:44 69.3 °F 55 °F 30.01 in West 7.6 mph 15 mph 60.2% 0.00 in 810 W/m2
15:49 69.2 °F 54.9 °F 30.01 in West 5 mph 13 mph 60.4% 0.00 in 810 W/m2
15:54 69.5 °F 55.4 °F 30.01 in WNW 7.9 mph 12 mph 60.8% 0.00 in 780 W/m2
15:59 69 °F 54.9 °F 30.01 in WSW 7.8 mph 14 mph 60.8% 0.00 in 722 W/m2
16:04 68.8 °F 55 °F 30.01 in West 6.3 mph 12 mph 61.4% 0.00 in 809 W/m2
16:09 69.1 °F 55.3 °F 30.01 in West 9 mph 17 mph 61.6% 0.00 in 800 W/m2
16:14 68.7 °F 55.5 °F 30.01 in West 8.2 mph 14 mph 62.8% 0.00 in 784 W/m2
16:19 69.1 °F 55.8 °F 30.00 in WNW 7.3 mph 14 mph 62.4% 0.00 in 770 W/m2
16:23 69.4 °F 56.1 °F 30.00 in West 9 mph 14 mph 62.5% 0.00 in 765 W/m2
16:29 69.4 °F 56 °F 30.00 in West 5.3 mph 13 mph 62.4% 0.00 in 715 W/m2
16:34 69.9 °F 56.4 °F 30.00 in WNW 6.2 mph 13 mph 62.4% 0.00 in 691 W/m2
16:39 69.2 °F 55.9 °F 30.00 in NW 7 mph 13 mph 62.8% 0.00 in 290 W/m2
16:44 68.6 °F 55.9 °F 30.00 in WNW 3.3 mph 11 mph 63.8% 0.00 in 754 W/m2
16:49 68.8 °F 56.2 °F 30.00 in NW 5.5 mph 15 mph 64% 0.00 in 754 W/m2
16:54 68.3 °F 55.8 °F 30.00 in WNW 4.3 mph 11 mph 64.2% 0.00 in 582 W/m2
16:59 68.3 °F 55.8 °F 30.00 in WNW 4.4 mph 10 mph 64.2% 0.00 in 452 W/m2
17:04 67.9 °F 55.4 °F 30.00 in WNW 7.8 mph 11 mph 64.2% 0.00 in 517 W/m2
17:09 68.1 °F 55.9 °F 30.00 in NW 3.9 mph 10 mph 65% 0.00 in 617 W/m2
17:14 68.7 °F 55.8 °F 30.00 in WNW 5.9 mph 11 mph 63.6% 0.00 in 543 W/m2
17:19 68.8 °F 55.5 °F 30.00 in WNW 6.7 mph 13 mph 62.6% 0.00 in 436 W/m2
17:24 68.2 °F 54.9 °F 30.00 in NW 6 mph 12 mph 62.6% 0.00 in 454 W/m2
17:29 67.7 °F 54.6 °F 30.00 in NW 7 mph 11 mph 62.8% 0.00 in 499 W/m2
17:34 67.8 °F 54.3 °F 30.00 in WNW 7.2 mph 13 mph 62% 0.00 in 466 W/m2
17:39 67.2 °F 54 °F 30.00 in West 7.7 mph 13 mph 62.6% 0.00 in 169 W/m2
17:44 66.7 °F 54 °F 30.00 in WNW 6.5 mph 15 mph 63.4% 0.00 in 155 W/m2
17:49 66.7 °F 54.1 °F 30.00 in West 7.9 mph 13 mph 64% 0.00 in 144 W/m2
17:59 66.4 °F 53.8 °F 30.00 in WNW 7.5 mph 13 mph 64% 0.00 in 98 W/m2
18:04 66.3 °F 53.7 °F 30.00 in WNW 7.8 mph 10 mph 64% 0.00 in 90 W/m2
18:09 65.9 °F 53.4 °F 30.00 in WNW 6.4 mph 13 mph 64.2% 0.00 in 111 W/m2
18:14 65.8 °F 53.8 °F 30.00 in WNW 5.2 mph 11 mph 65% 0.00 in 139 W/m2
18:19 65.7 °F 53.7 °F 30.00 in WNW 5.1 mph 13 mph 65% 0.00 in 204 W/m2
18:24 65.5 °F 53.4 °F 30.00 in WNW 7.8 mph 16 mph 65% 0.00 in 181 W/m2
18:29 65.3 °F 53.5 °F 30.00 in WNW 8.8 mph 16 mph 65.8% 0.00 in 190 W/m2
18:34 65 °F 53.3 °F 30.00 in WNW 9.6 mph 16 mph 66% 0.00 in 216 W/m2
18:39 64.9 °F 53.2 °F 30.00 in WNW 5.7 mph 15 mph 66% 0.00 in 181 W/m2
18:44 64.8 °F 52.9 °F 30.00 in West 8.8 mph 13 mph 65.4% 0.00 in 160 W/m2
18:49 64.8 °F 52.6 °F 30.00 in West 5.1 mph 11 mph 64.8% 0.00 in 141 W/m2
18:54 64.6 °F 52.4 °F 30.00 in NW 6.6 mph 12 mph 64.6% 0.00 in 113 W/m2
18:59 64.1 °F 51.7 °F 30.00 in WNW 8 mph 13 mph 64% 0.00 in 102 W/m2
19:04 63.9 °F 51.8 °F 30.00 in WNW 5.3 mph 11 mph 64.8% 0.00 in 97 W/m2
19:09 63.7 °F 51.9 °F 30.00 in WNW 7.2 mph 14 mph 65.4% 0.00 in 90 W/m2
19:14 63.5 °F 52 °F 30.00 in West 7.6 mph 11 mph 66.2% 0.00 in 84 W/m2
19:19 63.2 °F 52.1 °F 30.00 in WNW 5.6 mph 13 mph 67% 0.00 in 79 W/m2
19:24 63.1 °F 52.2 °F 30.00 in West 4.7 mph 9 mph 67.8% 0.00 in 69 W/m2
19:29 63.1 °F 52.3 °F 30.00 in West 3.6 mph 9 mph 68% 0.00 in 67 W/m2
19:34 63 °F 52.2 °F 30.00 in West 3.9 mph 8 mph 68% 0.00 in 67 W/m2
19:39 62.8 °F 52.1 °F 30.00 in West 6 mph 13 mph 68% 0.00 in 63 W/m2
19:44 62.4 °F 52.2 °F 30.00 in WNW 5.4 mph 11 mph 69% 0.00 in 54 W/m2
19:49 62.2 °F 51.9 °F 30.00 in WNW 6.8 mph 13 mph 69% 0.00 in 47 W/m2
19:54 62.1 °F 52 °F 30.00 in WNW 2.9 mph 11 mph 69.6% 0.00 in 40 W/m2
19:59 62 °F 52.1 °F 30.00 in WNW 6 mph 13 mph 70% 0.00 in 37 W/m2
20:04 61.9 °F 52.3 °F 30.00 in WNW 3.5 mph 5 mph 71% 0.00 in 33 W/m2
20:09 61.9 °F 52.4 °F 30.00 in West 3.1 mph 5 mph 71.2% 0.00 in 33 W/m2
20:13 61.8 °F 52.6 °F 30.00 in West 4.5 mph 7 mph 72% 0.00 in 33 W/m2
20:19 61.5 °F 52.4 °F 30.00 in West 3.7 mph 7 mph 72.2% 0.00 in 28 W/m2
20:24 61.5 °F 52.8 °F 30.00 in West 5.6 mph 10 mph 73.2% 0.00 in 19 W/m2
20:29 61.3 °F 53 °F 30.00 in WSW 6 mph 10 mph 74% 0.00 in 14 W/m2
20:34 61.2 °F 53.1 °F 30.00 in West 3.5 mph 8 mph 74.6% 0.00 in 12 W/m2
20:39 61 °F 53.1 °F 30.00 in West 4.7 mph 6 mph 75% 0.00 in 9 W/m2
20:44 60.9 °F 53 °F 30.01 in West 3.6 mph 6 mph 75% 0.00 in 7 W/m2
20:49 60.6 °F 52.7 °F 30.01 in West 4.9 mph 8 mph 75% 0.00 in 5 W/m2
20:54 60.4 °F 52.5 °F 30.01 in WSW 4.9 mph 9 mph 75% 0.00 in 0 W/m2
20:59 60.3 °F 52.3 °F 30.01 in West 4.4 mph 9 mph 75% 0.00 in 0 W/m2
21:04 60.2 °F 52.3 °F 30.01 in West 4.7 mph 8 mph 75% 0.00 in 0 W/m2
21:09 59.9 °F 52.2 °F 30.01 in West 4.2 mph 8 mph 75.6% 0.00 in 0 W/m2
21:14 59.8 °F 52.2 °F 30.01 in West 2.4 mph 6 mph 76% 0.00 in 0 W/m2
21:19 59.6 °F 51.9 °F 30.01 in West 3.7 mph 7 mph 75.4% 0.00 in 0 W/m2
21:24 59.5 °F 51.9 °F 30.01 in WNW 3.7 mph 8 mph 76% 0.00 in 0 W/m2
21:29 59.4 °F 51.8 °F 30.01 in WNW 2.6 mph 6 mph 76% 0.00 in 0 W/m2
21:34 59.2 °F 51.6 °F 30.01 in WNW 2.9 mph 5 mph 76% 0.00 in 0 W/m2
21:39 59.1 °F 51.5 °F 30.01 in WNW 3.1 mph 5 mph 76% 0.00 in 0 W/m2
21:44 58.8 °F 51.3 °F 30.02 in West 4.3 mph 9 mph 76% 0.00 in 0 W/m2
21:49 58.6 °F 51.1 °F 30.02 in WNW 3.6 mph 7 mph 76% 0.00 in 0 W/m2
21:54 58.6 °F 51.1 °F 30.02 in WNW 4.4 mph 7 mph 76% 0.00 in 0 W/m2
21:59 58.4 °F 50.8 °F 30.01 in WNW 3.7 mph 7 mph 76% 0.00 in 0 W/m2
22:04 58.2 °F 50.9 °F 30.01 in WNW 2.5 mph 5 mph 76.8% 0.00 in 0 W/m2
22:09 57.9 °F 50.7 °F 30.02 in WNW 2.5 mph 5 mph 77% 0.00 in 0 W/m2
22:14 57.8 °F 50.8 °F 30.02 in West 2.5 mph 5 mph 77.4% 0.00 in 0 W/m2
22:19 57.7 °F 50.9 °F 30.02 in West 2.4 mph 5 mph 78% 0.00 in 0 W/m2
22:24 57.6 °F 50.8 °F 30.02 in WNW 1.7 mph 5 mph 78% 0.00 in 0 W/m2
22:28 57.6 °F 51 °F 30.02 in West 1.7 mph 4 mph 78.8% 0.00 in 0 W/m2
22:34 57.5 °F 51 °F 30.02 in West 2.9 mph 5 mph 79% 0.00 in 0 W/m2
22:39 57.3 °F 51.1 °F 30.01 in West 2.5 mph 5 mph 79.6% 0.00 in 0 W/m2
22:44 57.1 °F 51 °F 30.02 in West 2.9 mph 6 mph 80% 0.00 in 0 W/m2
22:49 57 °F 50.9 °F 30.02 in West 2.6 mph 5 mph 80% 0.00 in 0 W/m2
22:54 56.9 °F 51.2 °F 30.02 in WNW 2.8 mph 5 mph 81% 0.00 in 0 W/m2
22:59 56.8 °F 51.2 °F 30.01 in WNW 3.2 mph 6 mph 81.2% 0.00 in 0 W/m2
23:04 56.7 °F 51.3 °F 30.01 in WNW 3.1 mph 7 mph 82% 0.00 in 0 W/m2
23:09 56.7 °F 51.3 °F 30.01 in WNW 3.6 mph 6 mph 82% 0.00 in 0 W/m2
23:14 56.5 °F 51.3 °F 30.01 in WNW 3.3 mph 8 mph 82.8% 0.00 in 0 W/m2
23:19 56.5 °F 51.4 °F 30.01 in WNW 4.1 mph 8 mph 83% 0.00 in 0 W/m2
23:24 56.4 °F 51.3 °F 30.01 in WNW 3.3 mph 5 mph 83% 0.00 in 0 W/m2
23:29 56.2 °F 51.4 °F 30.01 in WNW 2.6 mph 7 mph 83.8% 0.00 in 0 W/m2
23:34 56.1 °F 51.4 °F 30.01 in WNW 1.2 mph 7 mph 84% 0.00 in 0 W/m2
23:39 56.1 °F 51.5 °F 30.01 in WNW 1 mph 4 mph 84.5% 0.00 in 0 W/m2
23:44 56 °F 51.5 °F 30.01 in Calm     85% 0.00 in 0 W/m2
23:49 55.9 °F 51.4 °F 30.01 in Calm     85% 0.00 in 0 W/m2
23:54 55.9 °F 51.4 °F 30.01 in Calm   2 mph 85% 0.00 in 0 W/m2
23:59 55.8 °F 51.3 °F 30.01 in Calm     85% 0.00 in 0 W/m2
Bath Spa Weather
Compliments of Weather Underground - 2 mb